sensor_id;sensor_type;location;lat;lon;timestamp;pressure;altitude;pressure_sealevel;temperature;humidity
80869;BME280;70295;40.182;44.498;2023-08-30T00:01:50;89697.47;;;22.68;37.94844
80869;BME280;70295;40.182;44.498;2023-08-30T00:03:50;89697.55;;;22.67;37.98164
80869;BME280;70295;40.182;44.498;2023-08-30T00:05:50;89695.64;;;22.66;37.99238
80869;BME280;70295;40.182;44.498;2023-08-30T00:07:50;89689.83;;;22.66;38.04902
80869;BME280;70295;40.182;44.498;2023-08-30T00:09:50;89688.94;;;22.71;38.04219
80869;BME280;70295;40.182;44.498;2023-08-30T00:11:50;89689.36;;;22.75;37.97773
80869;BME280;70295;40.182;44.498;2023-08-30T00:13:50;89691.14;;;22.81;37.96016
80869;BME280;70295;40.182;44.498;2023-08-30T00:15:50;89689.23;;;22.87;38.0334
80869;BME280;70295;40.182;44.498;2023-08-30T00:17:50;89690.22;;;22.91;38.02559
80869;BME280;70295;40.182;44.498;2023-08-30T00:19:50;89693.08;;;22.94;38.11934
80869;BME280;70295;40.182;44.498;2023-08-30T00:21:50;89693.88;;;22.96;38.17793
80869;BME280;70295;40.182;44.498;2023-08-30T00:23:50;89689.16;;;22.98;38.24922
80869;BME280;70295;40.182;44.498;2023-08-30T00:25:50;89688.39;;;22.99;38.2834
80869;BME280;70295;40.182;44.498;2023-08-30T00:27:50;89684.04;;;23.01;38.28535
80869;BME280;70295;40.182;44.498;2023-08-30T00:29:50;89684.41;;;23.04;38.22969
80869;BME280;70295;40.182;44.498;2023-08-30T00:31:50;89683.75;;;23.06;38.19844
80869;BME280;70295;40.182;44.498;2023-08-30T00:33:50;89683.96;;;23.08;38.17695
80869;BME280;70295;40.182;44.498;2023-08-30T00:37:50;89686.36;;;23.09;38.14375
80869;BME280;70295;40.182;44.498;2023-08-30T00:39:50;89687.51;;;23.11;38.06562
80869;BME280;70295;40.182;44.498;2023-08-30T00:41:50;89691.69;;;23.11;38.03144
80869;BME280;70295;40.182;44.498;2023-08-30T00:43:50;89695.77;;;23.1;38.03144
80869;BME280;70295;40.182;44.498;2023-08-30T00:45:50;89702.59;;;23.09;38.27949
80869;BME280;70295;40.182;44.498;2023-08-30T00:47:50;89707.09;;;23.07;38.46016
80869;BME280;70295;40.182;44.498;2023-08-30T00:49:50;89713.78;;;23.05;38.46992
80869;BME280;70295;40.182;44.498;2023-08-30T00:51:50;89719.48;;;23.03;38.52656
80869;BME280;70295;40.182;44.498;2023-08-30T00:53:50;89723.94;;;23.02;38.62715
80869;BME280;70295;40.182;44.498;2023-08-30T00:55:50;89722.53;;;23.01;38.71894
80869;BME280;70295;40.182;44.498;2023-08-30T00:57:50;89729.56;;;23.02;38.80976
80869;BME280;70295;40.182;44.498;2023-08-30T00:59:50;89725.28;;;23.01;38.94648
80869;BME280;70295;40.182;44.498;2023-08-30T01:01:50;89724.65;;;22.99;39.12715
80869;BME280;70295;40.182;44.498;2023-08-30T01:03:50;89723.95;;;22.99;39.33223
80869;BME280;70295;40.182;44.498;2023-08-30T01:05:50;89727.36;;;23;39.56074
80869;BME280;70295;40.182;44.498;2023-08-30T01:07:55;89728.16;;;22.99;39.74238
80869;BME280;70295;40.182;44.498;2023-08-30T01:09:50;89734.36;;;22.98;39.55976
80869;BME280;70295;40.182;44.498;2023-08-30T01:16:04;89745.63;;;22.88;39.59687
80869;BME280;70295;40.182;44.498;2023-08-30T01:18:04;89744.91;;;22.85;39.71894
80869;BME280;70295;40.182;44.498;2023-08-30T01:20:05;89746.91;;;22.85;39.7873
80869;BME280;70295;40.182;44.498;2023-08-30T01:24:05;89751.67;;;22.82;39.94355
80869;BME280;70295;40.182;44.498;2023-08-30T01:29:45;89756.43;;;22.79;40.26094
80869;BME280;70295;40.182;44.498;2023-08-30T01:31:45;89755.99;;;22.77;40.31562
80869;BME280;70295;40.182;44.498;2023-08-30T01:33:45;89759.29;;;22.75;40.40449
80869;BME280;70295;40.182;44.498;2023-08-30T01:35:45;89755.5;;;22.74;40.49531
80869;BME280;70295;40.182;44.498;2023-08-30T01:37:46;89759.45;;;22.72;40.56172
80869;BME280;70295;40.182;44.498;2023-08-30T01:39:45;89760.2;;;22.72;40.61836
80869;BME280;70295;40.182;44.498;2023-08-30T01:41:45;89763.84;;;22.72;40.68672
80869;BME280;70295;40.182;44.498;2023-08-30T01:43:45;89772.19;;;22.72;40.69746
80869;BME280;70295;40.182;44.498;2023-08-30T01:45:45;89775.85;;;22.71;40.7209
80869;BME280;70295;40.182;44.498;2023-08-30T01:47:45;89780.23;;;22.71;40.73164
80869;BME280;70295;40.182;44.498;2023-08-30T01:49:45;89783.99;;;22.69;40.83223
80869;BME280;70295;40.182;44.498;2023-08-30T01:51:45;89783.92;;;22.67;40.92109
80869;BME280;70295;40.182;44.498;2023-08-30T01:53:45;89783.25;;;22.64;40.92891
80869;BME280;70295;40.182;44.498;2023-08-30T01:55:45;89781.41;;;22.62;40.96211
80869;BME280;70295;40.182;44.498;2023-08-30T01:57:45;89787.47;;;22.61;41.00508
80869;BME280;70295;40.182;44.498;2023-08-30T01:59:45;89788.92;;;22.61;41.05098
80869;BME280;70295;40.182;44.498;2023-08-30T02:09:14;89797.19;;;22.57;41.23066
80869;BME280;70295;40.182;44.498;2023-08-30T02:11:15;89801.46;;;22.55;41.26289
80869;BME280;70295;40.182;44.498;2023-08-30T02:13:13;89802.41;;;22.52;41.30488
80869;BME280;70295;40.182;44.498;2023-08-30T02:15:14;89803.56;;;22.48;41.41523
80869;BME280;70295;40.182;44.498;2023-08-30T02:19:13;89808.01;;;22.45;41.60664
80869;BME280;70295;40.182;44.498;2023-08-30T02:25:58;89814.77;;;22.41;41.97773
80869;BME280;70295;40.182;44.498;2023-08-30T02:27:58;89814.75;;;22.42;42.02363
80869;BME280;70295;40.182;44.498;2023-08-30T02:29:58;89814.69;;;22.42;42.03633
80869;BME280;70295;40.182;44.498;2023-08-30T02:31:58;89815.54;;;22.43;42.05976
80869;BME280;70295;40.182;44.498;2023-08-30T02:34:43;89813.16;;;22.41;42.02266
80869;BME280;70295;40.182;44.498;2023-08-30T02:36:43;89813.52;;;22.41;42.04609
80869;BME280;70295;40.182;44.498;2023-08-30T02:38:43;89818.13;;;22.4;42.0793
80869;BME280;70295;40.182;44.498;2023-08-30T02:40:43;89822.8;;;22.38;42.07734
80869;BME280;70295;40.182;44.498;2023-08-30T02:42:43;89828.48;;;22.34;42.1418
80869;BME280;70295;40.182;44.498;2023-08-30T02:44:43;89831.86;;;22.32;42.23066
80869;BME280;70295;40.182;44.498;2023-08-30T02:46:43;89832.55;;;22.3;42.33125
80869;BME280;70295;40.182;44.498;2023-08-30T02:48:43;89834.24;;;22.26;42.42988
80869;BME280;70295;40.182;44.498;2023-08-30T02:50:43;89836.67;;;22.25;42.5207
80869;BME280;70295;40.182;44.498;2023-08-30T02:52:43;89841.53;;;22.23;42.62129
80869;BME280;70295;40.182;44.498;2023-08-30T02:54:43;89847.77;;;22.22;42.68769
80869;BME280;70295;40.182;44.498;2023-08-30T02:56:43;89849.95;;;22.22;42.80098
80869;BME280;70295;40.182;44.498;2023-08-30T02:58:43;89850.77;;;22.24;42.83711
80869;BME280;70295;40.182;44.498;2023-08-30T03:05:39;89863.05;;;22.32;42.78828
80869;BME280;70295;40.182;44.498;2023-08-30T03:07:40;89866.02;;;22.34;42.69941
80869;BME280;70295;40.182;44.498;2023-08-30T03:09:40;89866.31;;;22.35;42.62129
80869;BME280;70295;40.182;44.498;2023-08-30T03:11:40;89869.98;;;22.37;42.5666
80869;BME280;70295;40.182;44.498;2023-08-30T03:13:40;89868.09;;;22.41;42.47871
80869;BME280;70295;40.182;44.498;2023-08-30T03:15:39;89870.63;;;22.47;42.39277
80869;BME280;70295;40.182;44.498;2023-08-30T03:17:40;89872.55;;;22.53;42.28437
80869;BME280;70295;40.182;44.498;2023-08-30T03:19:40;89872.86;;;22.59;42.21211
80869;BME280;70295;40.182;44.498;2023-08-30T03:21:39;89871.47;;;22.69;42.10762
80869;BME280;70295;40.182;44.498;2023-08-30T03:23:40;89870.91;;;22.79;42.01484
80869;BME280;70295;40.182;44.498;2023-08-30T03:25:39;89870.26;;;22.94;41.82344
80869;BME280;70295;40.182;44.498;2023-08-30T03:27:40;89871.48;;;23.11;41.62324
80869;BME280;70295;40.182;44.498;2023-08-30T03:29:40;89873.91;;;23.28;41.37715
80869;BME280;70295;40.182;44.498;2023-08-30T03:31:39;89876.02;;;23.44;41.13008
80869;BME280;70295;40.182;44.498;2023-08-30T03:33:39;89881.55;;;23.6;40.88301
80869;BME280;70295;40.182;44.498;2023-08-30T03:35:40;89880.63;;;23.76;40.59004
80869;BME280;70295;40.182;44.498;2023-08-30T03:37:40;89886.3;;;23.91;40.34101
80869;BME280;70295;40.182;44.498;2023-08-30T03:39:40;89884.1;;;24.08;40.12812
80869;BME280;70295;40.182;44.498;2023-08-30T03:41:39;89887.7;;;24.26;39.88105
80869;BME280;70295;40.182;44.498;2023-08-30T03:43:40;89887.16;;;24.45;39.60176
80869;BME280;70295;40.182;44.498;2023-08-30T03:45:40;89883.92;;;24.64;39.31074
80869;BME280;70295;40.182;44.498;2023-08-30T03:47:39;89887.3;;;24.84;39.04121
80869;BME280;70295;40.182;44.498;2023-08-30T03:49:40;89888.8;;;25.03;38.84004
80869;BME280;70295;40.182;44.498;2023-08-30T03:51:39;89888.23;;;25.2;38.50019
80869;BME280;70295;40.182;44.498;2023-08-30T03:53:40;89890.95;;;25.38;38.20723
80869;BME280;70295;40.182;44.498;2023-08-30T03:55:40;89889.73;;;25.54;37.94453
80869;BME280;70295;40.182;44.498;2023-08-30T03:57:39;89889.66;;;25.69;37.65937
80869;BME280;70295;40.182;44.498;2023-08-30T03:59:40;89891.84;;;25.85;37.37519
80869;BME280;70295;40.182;44.498;2023-08-30T04:01:39;89889.69;;;26;37.05488
80869;BME280;70295;40.182;44.498;2023-08-30T04:03:40;89888.79;;;26.13;36.83613
80869;BME280;70295;40.182;44.498;2023-08-30T04:05:40;89890.19;;;26.23;36.60371
80869;BME280;70295;40.182;44.498;2023-08-30T04:07:39;89895.92;;;26.34;36.33613
80869;BME280;70295;40.182;44.498;2023-08-30T04:09:40;89896.42;;;26.36;36.16621
80869;BME280;70295;40.182;44.498;2023-08-30T04:11:40;89891.21;;;26.46;35.99043
80869;BME280;70295;40.182;44.498;2023-08-30T04:13:39;89890.84;;;26.55;35.77851
80869;BME280;70295;40.182;44.498;2023-08-30T04:15:40;89894.45;;;26.62;35.76191
80869;BME280;70295;40.182;44.498;2023-08-30T04:17:39;89896.27;;;26.69;35.49043
80869;BME280;70295;40.182;44.498;2023-08-30T04:19:40;89900.03;;;26.68;35.31758
80869;BME280;70295;40.182;44.498;2023-08-30T04:21:40;89901.41;;;26.75;35.3459
80869;BME280;70295;40.182;44.498;2023-08-30T04:23:39;89889.42;;;26.9;35.2541
80869;BME280;70295;40.182;44.498;2023-08-30T04:25:40;89889.57;;;27.05;35.04805
80869;BME280;70295;40.182;44.498;2023-08-30T04:27:39;89895.86;;;27.15;34.87129
80869;BME280;70295;40.182;44.498;2023-08-30T04:29:39;89898.27;;;27.15;34.39863
80869;BME280;70295;40.182;44.498;2023-08-30T04:31:40;89900.09;;;27;34.59492
80869;BME280;70295;40.182;44.498;2023-08-30T04:33:39;89896.45;;;26.95;34.78633
80869;BME280;70295;40.182;44.498;2023-08-30T04:35:40;89903.95;;;27.08;34.77363
80869;BME280;70295;40.182;44.498;2023-08-30T04:37:40;89901.63;;;27.22;34.56562
80869;BME280;70295;40.182;44.498;2023-08-30T04:39:40;89904.11;;;27.34;34.43672
80869;BME280;70295;40.182;44.498;2023-08-30T04:41:40;89907.44;;;27.44;34.21406
80869;BME280;70295;40.182;44.498;2023-08-30T04:43:39;89895.92;;;27.44;33.8918
80869;BME280;70295;40.182;44.498;2023-08-30T04:45:39;89905.57;;;27.47;34.07832
80869;BME280;70295;40.182;44.498;2023-08-30T04:47:40;89910.67;;;27.58;33.96016
80869;BME280;70295;40.182;44.498;2023-08-30T04:49:39;89907.82;;;27.74;33.63691
80869;BME280;70295;40.182;44.498;2023-08-30T04:51:40;89906.94;;;27.9;33.47578
80869;BME280;70295;40.182;44.498;2023-08-30T04:53:39;89910.73;;;28.05;33.18769
80869;BME280;70295;40.182;44.498;2023-08-30T04:55:39;89902.03;;;28.08;33.0168
80869;BME280;70295;40.182;44.498;2023-08-30T04:57:40;89912.05;;;28.15;33.04512
80869;BME280;70295;40.182;44.498;2023-08-30T04:59:40;89911.92;;;28.23;32.83125
80869;BME280;70295;40.182;44.498;2023-08-30T05:01:39;89912.95;;;28.32;32.83809
80869;BME280;70295;40.182;44.498;2023-08-30T05:03:39;89912.68;;;28.45;32.61641
80869;BME280;70295;40.182;44.498;2023-08-30T05:05:39;89913.48;;;28.54;32.40351
80869;BME280;70295;40.182;44.498;2023-08-30T05:07:40;89909.6;;;28.63;32.06367
80869;BME280;70295;40.182;44.498;2023-08-30T05:09:39;89910.75;;;28.62;32.08613
80869;BME280;70295;40.182;44.498;2023-08-30T05:11:39;89912.06;;;28.64;32.16816
80869;BME280;70295;40.182;44.498;2023-08-30T05:13:40;89907.8;;;28.73;32.13984
80869;BME280;70295;40.182;44.498;2023-08-30T05:15:39;89914.02;;;28.85;32.02168
80869;BME280;70295;40.182;44.498;2023-08-30T05:17:40;89916.63;;;28.92;31.79512
80869;BME280;70295;40.182;44.498;2023-08-30T05:19:39;89922.91;;;28.98;31.71797
80869;BME280;70295;40.182;44.498;2023-08-30T05:21:39;89923.55;;;28.99;31.2209
80869;BME280;70295;40.182;44.498;2023-08-30T05:23:40;89923.55;;;28.73;31.5959
80869;BME280;70295;40.182;44.498;2023-08-30T05:25:39;89929.91;;;28.78;31.7043
80869;BME280;70295;40.182;44.498;2023-08-30T05:27:39;89933.67;;;28.89;31.50312
80869;BME280;70295;40.182;44.498;2023-08-30T05:29:39;89934.59;;;29.04;31.46797
80869;BME280;70295;40.182;44.498;2023-08-30T05:31:39;89939.06;;;29.06;31.24922
80869;BME280;70295;40.182;44.498;2023-08-30T05:33:40;89936.75;;;29.05;31.27168
80869;BME280;70295;40.182;44.498;2023-08-30T05:35:39;89939.44;;;29.05;31.47969
80869;BME280;70295;40.182;44.498;2023-08-30T05:37:39;89940.72;;;29.22;31.56172
80869;BME280;70295;40.182;44.498;2023-08-30T05:39:39;89941.95;;;29.4;31.21504
80869;BME280;70295;40.182;44.498;2023-08-30T05:41:39;89948.51;;;29.52;30.99238
80869;BME280;70295;40.182;44.498;2023-08-30T05:43:39;89954.3;;;29.61;30.52266
80869;BME280;70295;40.182;44.498;2023-08-30T05:45:39;89957.06;;;29.69;30.48262
80869;BME280;70295;40.182;44.498;2023-08-30T05:47:39;89953.17;;;29.81;30.42109
80869;BME280;70295;40.182;44.498;2023-08-30T05:49:40;89953.61;;;29.92;30.35859
80869;BME280;70295;40.182;44.498;2023-08-30T05:51:40;89952;;;30.01;30.41133
80869;BME280;70295;40.182;44.498;2023-08-30T05:53:39;89953.77;;;30.06;30.07734
80869;BME280;70295;40.182;44.498;2023-08-30T05:55:39;89959.53;;;29.85;30.05293
80869;BME280;70295;40.182;44.498;2023-08-30T05:57:39;89956.45;;;29.77;30.31367
80869;BME280;70295;40.182;44.498;2023-08-30T05:59:40;89962.23;;;29.86;30.21504
80869;BME280;70295;40.182;44.498;2023-08-30T06:01:39;89961.61;;;29.95;29.8957
80869;BME280;70295;40.182;44.498;2023-08-30T06:03:39;89952.67;;;30;29.88789
80869;BME280;70295;40.182;44.498;2023-08-30T06:05:39;89964.02;;;30.04;30.04121
80869;BME280;70295;40.182;44.498;2023-08-30T06:07:39;89960.66;;;29.93;29.89473
80869;BME280;70295;40.182;44.498;2023-08-30T06:09:39;89964.28;;;29.88;30.29805
80869;BME280;70295;40.182;44.498;2023-08-30T06:11:39;89965.73;;;30.03;30.21601
80869;BME280;70295;40.182;44.498;2023-08-30T06:13:39;89963.97;;;30.16;30.18867
80869;BME280;70295;40.182;44.498;2023-08-30T06:15:40;89960.88;;;30.33;30.01484
80869;BME280;70295;40.182;44.498;2023-08-30T06:17:39;89963.76;;;30.45;29.66328
80869;BME280;70295;40.182;44.498;2023-08-30T06:19:39;89963.34;;;30.48;29.26973
80869;BME280;70295;40.182;44.498;2023-08-30T06:21:39;89968.06;;;30.4;29.16035
80869;BME280;70295;40.182;44.498;2023-08-30T06:23:39;89965.13;;;30.44;29.23262
80869;BME280;70295;40.182;44.498;2023-08-30T06:37:40;89966.53;;;30.97;28.48848
80869;BME280;70295;40.182;44.498;2023-08-30T06:39:39;89965.39;;;31;28.29121
80869;BME280;70295;40.182;44.498;2023-08-30T06:41:40;89970.54;;;30.96;28.33613
80869;BME280;70295;40.182;44.498;2023-08-30T06:43:39;89969.78;;;31;28.26777
80869;BME280;70295;40.182;44.498;2023-08-30T06:45:41;89963.91;;;31.05;28.29512
80869;BME280;70295;40.182;44.498;2023-08-30T06:47:39;89965.69;;;31.02;28.28144
80869;BME280;70295;40.182;44.498;2023-08-30T06:49:39;89963.44;;;30.99;28.36152
80869;BME280;70295;40.182;44.498;2023-08-30T06:51:39;89965.11;;;30.99;28.44258
80869;BME280;70295;40.182;44.498;2023-08-30T06:53:39;89962.13;;;30.96;28.31172
80869;BME280;70295;40.182;44.498;2023-08-30T06:55:39;89960.54;;;30.91;28.51875
80869;BME280;70295;40.182;44.498;2023-08-30T06:57:39;89965.1;;;30.82;28.47773
80869;BME280;70295;40.182;44.498;2023-08-30T06:59:39;89958.89;;;30.71;28.48262
80869;BME280;70295;40.182;44.498;2023-08-30T07:01:39;89950.95;;;30.6;28.48652
80869;BME280;70295;40.182;44.498;2023-08-30T07:03:39;89945.32;;;30.32;28.63105
80869;BME280;70295;40.182;44.498;2023-08-30T07:05:39;89949.19;;;30.21;29.1125
80869;BME280;70295;40.182;44.498;2023-08-30T07:07:39;89950.07;;;30.23;29.33516
80869;BME280;70295;40.182;44.498;2023-08-30T07:09:39;89948.47;;;30.27;29.53437
80869;BME280;70295;40.182;44.498;2023-08-30T07:11:41;89948.59;;;30.25;29.41719
80869;BME280;70295;40.182;44.498;2023-08-30T07:13:39;89945.06;;;30.22;29.51973
80869;BME280;70295;40.182;44.498;2023-08-30T07:15:39;89943.34;;;30.21;29.64668
80869;BME280;70295;40.182;44.498;2023-08-30T07:17:39;89941.7;;;30.22;29.60078
80869;BME280;70295;40.182;44.498;2023-08-30T07:19:39;89942.49;;;30.24;29.49726
80869;BME280;70295;40.182;44.498;2023-08-30T07:21:39;89948.79;;;30.25;29.18476
80869;BME280;70295;40.182;44.498;2023-08-30T07:23:39;89939.72;;;30.14;29.02656
80869;BME280;70295;40.182;44.498;2023-08-30T07:25:39;89936.38;;;30.03;29.12324
80869;BME280;70295;40.182;44.498;2023-08-30T07:27:39;89943.34;;;29.97;29.25996
80869;BME280;70295;40.182;44.498;2023-08-30T07:29:39;89938.44;;;29.95;29.04902
80869;BME280;70295;40.182;44.498;2023-08-30T07:31:39;89933.95;;;29.86;28.8332
80869;BME280;70295;40.182;44.498;2023-08-30T07:33:39;89936.83;;;29.71;29.08027
80869;BME280;70295;40.182;44.498;2023-08-30T07:35:39;89939.83;;;29.75;29.15156
80869;BME280;70295;40.182;44.498;2023-08-30T07:37:39;89940.53;;;29.85;29.04219
80869;BME280;70295;40.182;44.498;2023-08-30T07:39:39;89934.42;;;29.93;28.88398
80869;BME280;70295;40.182;44.498;2023-08-30T07:41:39;89937.05;;;30;28.79609
80869;BME280;70295;40.182;44.498;2023-08-30T07:43:39;89933.44;;;29.99;28.63301
80869;BME280;70295;40.182;44.498;2023-08-30T07:45:39;89921.48;;;29.76;28.75801
80869;BME280;70295;40.182;44.498;2023-08-30T07:47:39;89926.05;;;29.69;29.20527
80869;BME280;70295;40.182;44.498;2023-08-30T07:49:39;89935.22;;;29.65;29.00508
80869;BME280;70295;40.182;44.498;2023-08-30T07:51:39;89929.93;;;29.67;29.05293
80869;BME280;70295;40.182;44.498;2023-08-30T07:53:39;89927.84;;;29.71;28.91719
80869;BME280;70295;40.182;44.498;2023-08-30T07:55:39;89931.69;;;29.75;28.93086
80869;BME280;70295;40.182;44.498;2023-08-30T07:57:39;89929.44;;;29.79;29.01484
80869;BME280;70295;40.182;44.498;2023-08-30T07:59:39;89928.38;;;29.81;28.94648
80869;BME280;70295;40.182;44.498;2023-08-30T08:01:39;89927.45;;;29.85;28.93769
80869;BME280;70295;40.182;44.498;2023-08-30T08:03:39;89923.62;;;29.89;28.85859
80869;BME280;70295;40.182;44.498;2023-08-30T08:05:40;89923.12;;;29.9;28.89473
80869;BME280;70295;40.182;44.498;2023-08-30T08:07:39;89922.66;;;29.93;28.82637
80869;BME280;70295;40.182;44.498;2023-08-30T08:09:39;89928.13;;;29.93;28.86152
80869;BME280;70295;40.182;44.498;2023-08-30T08:11:39;89920.47;;;29.93;28.79121
80869;BME280;70295;40.182;44.498;2023-08-30T08:13:39;89921.23;;;29.94;28.75801
80869;BME280;70295;40.182;44.498;2023-08-30T08:15:39;89922.72;;;29.96;28.82832
80869;BME280;70295;40.182;44.498;2023-08-30T08:17:39;89915.55;;;29.96;28.85176
80869;BME280;70295;40.182;44.498;2023-08-30T08:19:39;89913.45;;;29.95;28.74629
80869;BME280;70295;40.182;44.498;2023-08-30T08:21:39;89921.09;;;29.9;28.58125
80869;BME280;70295;40.182;44.498;2023-08-30T08:23:39;89917.64;;;29.88;28.68379
80869;BME280;70295;40.182;44.498;2023-08-30T08:25:39;89920.88;;;29.88;28.71894
80869;BME280;70295;40.182;44.498;2023-08-30T08:27:39;89913.39;;;29.9;28.68574
80869;BME280;70295;40.182;44.498;2023-08-30T08:29:39;89920.47;;;29.93;28.55879
80869;BME280;70295;40.182;44.498;2023-08-30T08:31:39;89915.84;;;29.97;28.42305
80869;BME280;70295;40.182;44.498;2023-08-30T08:33:39;89911.5;;;29.98;28.44648
80869;BME280;70295;40.182;44.498;2023-08-30T08:35:39;89910.61;;;30;28.36641
80869;BME280;70295;40.182;44.498;2023-08-30T08:37:39;89912.84;;;30.01;28.26289
80869;BME280;70295;40.182;44.498;2023-08-30T08:39:39;89911.98;;;30.01;28.12324
80869;BME280;70295;40.182;44.498;2023-08-30T08:41:40;89910.53;;;29.99;28.16816
80869;BME280;70295;40.182;44.498;2023-08-30T08:43:39;89903.5;;;29.97;27.93476
80869;BME280;70295;40.182;44.498;2023-08-30T08:45:39;89914.46;;;29.92;27.92012
80869;BME280;70295;40.182;44.498;2023-08-30T08:47:40;89917.64;;;29.9;27.91816
80869;BME280;70295;40.182;44.498;2023-08-30T08:49:39;89914.7;;;29.82;27.77461
80869;BME280;70295;40.182;44.498;2023-08-30T08:51:39;89912.81;;;29.73;27.87324
80869;BME280;70295;40.182;44.498;2023-08-30T08:53:39;89919.44;;;29.63;27.99434
80869;BME280;70295;40.182;44.498;2023-08-30T08:55:39;89917.95;;;29.51;28.06855
80869;BME280;70295;40.182;44.498;2023-08-30T08:57:39;89916.14;;;29.43;28.12031
80869;BME280;70295;40.182;44.498;2023-08-30T08:59:39;89908.66;;;29.41;28.29316
80869;BME280;70295;40.182;44.498;2023-08-30T09:01:39;89911.42;;;29.47;28.425
80869;BME280;70295;40.182;44.498;2023-08-30T09:03:39;89913.52;;;29.54;28.1623
80869;BME280;70295;40.182;44.498;2023-08-30T09:05:39;89907.89;;;29.57;28.02559
80869;BME280;70295;40.182;44.498;2023-08-30T09:07:39;89909.88;;;29.59;28.07344
80869;BME280;70295;40.182;44.498;2023-08-30T09:09:39;89912.65;;;29.63;27.93574
80869;BME280;70295;40.182;44.498;2023-08-30T09:11:39;89909.48;;;29.61;27.6916
80869;BME280;70295;40.182;44.498;2023-08-30T09:13:39;89898.19;;;29.6;27.65547
80869;BME280;70295;40.182;44.498;2023-08-30T09:22:35;89901.81;;;29.26;27.70332
80869;BME280;70295;40.182;44.498;2023-08-30T09:26:28;89897.71;;;29.25;27.83027
80869;BME280;70295;40.182;44.498;2023-08-30T09:28:28;89899.06;;;29.28;27.99531
80869;BME280;70295;40.182;44.498;2023-08-30T09:30:28;89894.25;;;29.32;27.84687
80869;BME280;70295;40.182;44.498;2023-08-30T09:32:28;89895.04;;;29.34;27.75508
80869;BME280;70295;40.182;44.498;2023-08-30T09:34:28;89878.27;;;29.33;27.56855
80869;BME280;70295;40.182;44.498;2023-08-30T09:38:28;89886.08;;;29.32;27.86934
80869;BME280;70295;40.182;44.498;2023-08-30T09:40:28;89887.72;;;29.33;27.77754
80869;BME280;70295;40.182;44.498;2023-08-30T09:42:28;89891.83;;;29.36;27.66328
80869;BME280;70295;40.182;44.498;2023-08-30T09:44:29;89885;;;29.39;27.46797
80869;BME280;70295;40.182;44.498;2023-08-30T09:46:28;89889.77;;;29.39;27.23555
80869;BME280;70295;40.182;44.498;2023-08-30T09:48:28;89888.88;;;29.37;27.16523
80869;BME280;70295;40.182;44.498;2023-08-30T09:50:28;89885.89;;;29.33;27.39473
80869;BME280;70295;40.182;44.498;2023-08-30T09:52:28;89879.15;;;29.27;27.48359
80869;BME280;70295;40.182;44.498;2023-08-30T09:54:28;89879.59;;;29.21;27.51484
80869;BME280;70295;40.182;44.498;2023-08-30T09:56:28;89884.97;;;29.16;27.61641
80869;BME280;70295;40.182;44.498;2023-08-30T09:58:28;89884.27;;;29.16;27.33711
80869;BME280;70295;40.182;44.498;2023-08-30T10:00:28;89889.21;;;29.12;27.31172
80869;BME280;70295;40.182;44.498;2023-08-30T10:02:28;89887.88;;;29.12;27.06855
80869;BME280;70295;40.182;44.498;2023-08-30T10:04:28;89884.13;;;29.11;27.02168
80869;BME280;70295;40.182;44.498;2023-08-30T10:06:28;89878.88;;;29.12;26.91719
80869;BME280;70295;40.182;44.498;2023-08-30T10:08:28;89875.13;;;29.13;27.09199
80869;BME280;70295;40.182;44.498;2023-08-30T10:10:28;89873.84;;;29.19;27.29316
80869;BME280;70295;40.182;44.498;2023-08-30T10:12:28;89865.05;;;29.25;27.1457
80869;BME280;70295;40.182;44.498;2023-08-30T10:14:28;89871.52;;;29.24;26.61152
80869;BME280;70295;40.182;44.498;2023-08-30T10:16:28;89871.47;;;29.13;26.37324
80869;BME280;70295;40.182;44.498;2023-08-30T10:18:28;89871.69;;;29.07;26.16035
80869;BME280;70295;40.182;44.498;2023-08-30T10:20:28;89871.05;;;29.02;26.26191
80869;BME280;70295;40.182;44.498;2023-08-30T10:22:28;89868.34;;;29.03;26.41328
80869;BME280;70295;40.182;44.498;2023-08-30T10:24:28;89864.91;;;29.07;26.50801
80869;BME280;70295;40.182;44.498;2023-08-30T10:26:28;89866.7;;;29.11;26.65059
80869;BME280;70295;40.182;44.498;2023-08-30T10:28:28;89867.05;;;29.15;26.57148
80869;BME280;70295;40.182;44.498;2023-08-30T10:30:28;89863.32;;;29.18;26.42305
80869;BME280;70295;40.182;44.498;2023-08-30T10:32:28;89858.53;;;29.2;26.27266
80869;BME280;70295;40.182;44.498;2023-08-30T10:34:31;89856.17;;;29.2;26.24922
80869;BME280;70295;40.182;44.498;2023-08-30T10:36:28;89851.07;;;29.18;26.28242
80869;BME280;70295;40.182;44.498;2023-08-30T10:38:28;89850.68;;;29.16;26.30586
80869;BME280;70295;40.182;44.498;2023-08-30T10:40:28;89856.77;;;29.16;26.3625
80869;BME280;70295;40.182;44.498;2023-08-30T10:42:28;89856.81;;;29.17;26.49141
80869;BME280;70295;40.182;44.498;2023-08-30T10:44:28;89855.78;;;29.18;26.48066
80869;BME280;70295;40.182;44.498;2023-08-30T10:50:42;89855.94;;;29.03;26.60957
80869;BME280;70295;40.182;44.498;2023-08-30T10:52:28;89847.74;;;28.98;26.65351
80869;BME280;70295;40.182;44.498;2023-08-30T10:54:36;89845.84;;;28.97;26.87324
80869;BME280;70295;40.182;44.498;2023-08-30T10:58:28;89846.58;;;29.01;27.15449
80869;BME280;70295;40.182;44.498;2023-08-30T11:00:28;89845.77;;;29.04;27.22578
80869;BME280;70295;40.182;44.498;2023-08-30T11:02:28;89845.36;;;29.06;27.2043
80869;BME280;70295;40.182;44.498;2023-08-30T11:04:28;89837.08;;;29.11;27.3459
80869;BME280;70295;40.182;44.498;2023-08-30T11:06:28;89847.34;;;29.14;27.24336